Quaker Hill, Connecticut
Current Conditions -  °F | °C
As of 3:56 AM on Friday 24 Oct 2014 (Local Time) from KGON Reporting Station
Overcast Overcast  
Wind Chill: 51°   Ceiling: 2300
Heat Index: 51°   Visibility: 10mi
Dew Point: 48°   Wind: 14mph
Humidity: 89%   Direction: 320°NW
Pressure: 29.67"   Gusts: NA
Location:  41.4°N, 72.11°W
Report Text: KGON 240756Z AUTO 32012KT 10SM FEW014 OVC023 11/09 A2967 RMK AO2 SLP046 T01060089
Loading
Personal Weather Stations






























Interactive Weather Map
Tropical Storm Tracking
New forecast layout! Learn more

10-Day Weather Forecast

Advertisements
Track Severe Weather on mobile